Terminal Aerodrome Forecast
Issued by NWS Newport/Morehead City, NC

Home | Current Version | Previous Version | Graphics & Text | Print | Product List | Glossary On
Versions: 1 2 3 4 5 6 7 8 9 10 11 12 13 14 15 16 17 18 19 20 21
000
FTUS42 KMHX 181300 AAA
TAFEWN
TAF AMD
KEWN 181327Z 1813/1912 03010KT P6SM OVC010
     FM181430 04010KT P6SM SCT030 OVC200
     FM182100 06008KT P6SM SCT010 OVC050
     FM190300 06010KT 4SM RA BR BKN010=

USA.gov is the U.S. government's official web portal to all federal, state and local government web resources and services.